Latest Weather Observations for Eucla

IDW60801

Issued at 7:35 am WST Saturday 25 October 2014 (issued every 30 minutes, with the page automatically refreshed every 10 minutes)

About weather observations | Map of weather stations | Latest weather observations for WA | Other Formats
Station Details ID: 011003 Name: EUCLA Lat: -31.68 Lon: 128.90 Height: 93.1 m
Data from the previous 72 hours. | See also: Recent months at Eucla
Date/Time
WST
Temp
°C
App
Temp
°C
Dew
Point
Rel
Hum
%
Delta-T
°C
Wind Press
QNH
hPa
Press
MSL
hPa
Rain
since 9 am
mm
Dir
 
Spd
km/h
Gust
km/h
Spd
kts
Gust
kts
25/07:30am 20.3 19.0 13.7 66 3.8 NE 13 19 7 10 1017.2 1017.1 0.0
25/07:00am 19.1 17.6 14.1 73 2.9 ENE 15 22 8 12 1017.7 1017.6 0.0
25/06:30am 18.2 16.6 13.9 76 2.5 ENE 15 22 8 12 1017.9 1017.8 0.0
25/06:00am 16.6 14.6 13.9 84 1.5 ENE 17 26 9 14 1018.1 1018.0 0.0
25/05:30am 16.3 15.0 13.8 85 1.4 E 13 17 7 9 1017.9 1017.8 0.0
25/05:00am 16.1 14.8 13.8 86 1.3 E 13 19 7 10 1017.3 1017.2 0.0
25/04:30am 16.1 14.8 13.8 86 1.3 E 13 20 7 11 1017.1 1017.0 0.0
25/04:00am 15.9 14.5 13.4 85 1.4 ENE 13 17 7 9 1017.0 1016.9 0.0
25/03:30am 16.0 15.0 13.5 85 1.4 E 11 17 6 9 1017.0 1016.9 0.0
25/03:00am 16.0 15.1 13.7 86 1.3 E 11 17 6 9 1017.0 1016.9 0.0
25/02:30am 16.0 14.7 13.8 87 1.2 E 13 19 7 10 1017.5 1017.4 0.0
25/02:00am 16.0 14.4 14.0 88 1.1 E 15 19 8 10 1017.3 1017.2 0.0
25/01:30am 15.8 14.5 13.8 88 1.1 ESE 13 20 7 11 1017.1 1017.0 0.0
25/01:00am 15.9 15.4 13.9 88 1.1 ESE 9 13 5 7 1017.5 1017.4 0.0
25/12:30am 15.9 15.4 13.7 87 1.2 SE 9 15 5 8 1017.4 1017.3 0.0
25/12:00am 16.0 14.7 13.8 87 1.2 SE 13 19 7 10 1017.7 1017.6 0.0
 
Date/Time
WST
Temp
°C
App
Temp
°C
Dew
Point
Rel
Hum
%
Delta-T
°C
Wind Press
QNH
hPa
Press
MSL
hPa
Rain
since 9 am
mm
Dir
 
Spd
km/h
Gust
km/h
Spd
kts
Gust
kts
24/11:30pm 15.9 14.6 13.6 86 1.3 ESE 13 20 7 11 1018.0 1017.9 0.0
24/11:00pm 16.2 15.3 13.7 85 1.4 ESE 11 15 6 8 1018.6 1018.5 0.0
24/10:30pm 16.4 15.1 13.7 84 1.5 SSE 13 17 7 9 1019.3 1019.1 0.0
24/10:00pm 16.4 15.1 13.7 84 1.5 SE 13 19 7 10 1019.3 1019.1 0.0
24/09:30pm 16.7 15.5 14.0 84 1.5 SSE 13 19 7 10 1019.2 1019.0 0.0
24/09:00pm 16.9 15.5 14.4 85 1.4 SE 15 20 8 11 1019.2 1019.0 0.0
24/08:30pm 16.8 15.3 14.1 84 1.5 SSE 15 22 8 12 1018.9 1018.8 0.0
24/08:00pm 16.9 15.8 14.2 84 1.5 SE 13 19 7 10 1018.5 1018.4 0.0
24/07:30pm 17.0 15.8 14.1 83 1.7 SSE 13 19 7 10 1018.4 1018.3 0.0
24/07:00pm 17.2 15.5 14.7 85 1.4 SSE 17 22 9 12 1018.1 1018.0 0.0
24/06:30pm 17.3 15.9 14.4 83 1.7 S 15 22 8 12 1018.0 1017.9 0.0
24/06:00pm 17.2 15.4 14.5 84 1.6 S 17 24 9 13 1017.7 1017.6 0.0
24/05:30pm 17.5 15.7 14.4 82 1.8 S 17 22 9 12 1017.6 1017.5 0.0
24/05:00pm 17.8 15.6 14.3 80 2.0 S 19 26 10 14 1017.4 1017.3 0.0
24/04:30pm 18.2 16.4 14.5 79 2.1 S 17 24 9 13 1017.2 1017.1 0.0
24/04:00pm 19.2 17.0 14.5 74 2.7 S 19 28 10 15 1017.1 1017.0 0.0
24/03:30pm 19.6 17.1 14.2 71 3.1 S 20 28 11 15 1016.9 1016.8 0.0
24/03:00pm 20.3 18.5 14.4 69 3.4 S 17 28 9 15 1017.0 1016.9 0.0
24/02:30pm 21.3 18.9 14.5 65 4.0 S 20 28 11 15 1017.0 1016.9 0.0
24/02:00pm 21.4 19.0 13.8 62 4.4 S 19 28 10 15 1017.1 1017.0 0.0
24/01:30pm 21.3 19.1 14.9 67 3.8 S 20 30 11 16 1017.1 1017.0 0.0
24/01:00pm 22.1 20.0 14.7 63 4.4 S 19 26 10 14 1017.0 1016.9 0.0
24/12:30pm 22.1 19.7 14.5 62 4.5 S 20 30 11 16 1016.9 1016.8 0.0
24/12:00pm 22.5 20.2 14.1 59 4.9 S 19 30 10 16 1017.1 1017.0 0.0
24/11:30am 22.8 20.3 13.6 56 5.4 S 19 30 10 16 1017.2 1017.1 0.0
24/11:00am 22.9 20.2 13.4 55 5.5 S 20 32 11 17 1017.3 1017.2 0.0
24/10:30am 23.3 20.6 12.9 52 6.0 S 19 28 10 15 1017.5 1017.4 0.0
24/10:00am 22.9 20.0 12.2 51 6.1 S 19 28 10 15 1017.7 1017.6 0.0
24/09:30am 23.8 20.7 12.1 48 6.7 S 20 30 11 16 1017.7 1017.6 0.0
24/09:00am 23.6 20.0 10.6 44 7.2 S 20 28 11 15 1017.7 1017.6 0.0
24/08:30am 23.9 20.5 10.6 43 7.4 S 19 26 10 14 1017.8 1017.7 0.0
24/08:00am 23.1 20.3 11.5 48 6.5 S 17 26 9 14 1017.3 1017.2 0.0
24/07:30am 22.6 20.7 11.7 50 6.1 S 13 19 7 10 1017.1 1017.0 0.0
24/07:00am 21.4 20.4 13.3 60 4.7 S 11 17 6 9 1016.7 1016.6 0.0
24/06:30am 19.9 19.7 13.6 67 3.6 SW 7 11 4 6 1016.8 1016.7 0.0
24/06:00am 17.9 17.5 14.2 79 2.1 SW 9 11 5 6 1016.2 1016.1 0.0
24/05:30am 16.5 15.9 13.6 83 1.6 WSW 9 13 5 7 1016.0 1015.9 0.0
24/05:00am 15.6 15.4 13.6 88 1.1 S 7 9 4 5 1015.7 1015.6 0.0
24/04:30am 15.9 15.8 13.9 88 1.1 S 7 11 4 6 1015.0 1014.8 0.0
24/04:00am 15.9 15.5 14.1 89 1.0 S 9 13 5 7 1014.4 1014.2 0.0
24/03:30am 15.8 15.1 14.2 90 0.9 S 11 13 6 7 1014.1 1013.9 0.0
24/03:00am 16.0 15.3 14.4 90 0.9 S 11 15 6 8 1014.1 1013.9 0.0
24/02:30am 15.8 14.6 14.0 89 1.0 S 13 17 7 9 1013.7 1013.5 0.0
24/02:00am 16.3 15.2 14.3 88 1.1 SSW 13 17 7 9 1014.0 1013.8 0.0
24/01:30am 16.6 15.4 14.1 85 1.4 SSW 13 19 7 10 1013.9 1013.7 0.0
24/01:00am 16.8 15.7 14.3 85 1.4 SW 13 17 7 9 1013.9 1013.7 0.0
24/12:30am 16.4 15.0 14.4 88 1.1 SW 15 20 8 11 1013.8 1013.6 0.0
24/12:00am 16.5 14.6 14.3 87 1.3 SW 17 24 9 13 1013.8 1013.6 0.0
 
Date/Time
WST
Temp
°C
App
Temp
°C
Dew
Point
Rel
Hum
%
Delta-T
°C
Wind Press
QNH
hPa
Press
MSL
hPa
Rain
since 9 am
mm
Dir
 
Spd
km/h
Gust
km/h
Spd
kts
Gust
kts
23/11:30pm 17.3 16.0 14.8 85 1.5 SSW 15 17 8 9 1013.6 1013.4 0.0
23/11:00pm 17.8 16.0 14.5 81 1.9 SSW 17 24 9 13 1013.6 1013.4 0.0
23/10:30pm 19.3 17.0 14.1 72 3.0 WSW 19 26 10 14 1013.3 1013.1 0.0
23/10:00pm 21.9 19.7 12.2 54 5.5 WSW 15 26 8 14 1013.0 1012.8 0.0
23/09:30pm 22.7 20.9 10.8 47 6.6 WSW 11 19 6 10 1012.6 1012.4 0.0
23/09:00pm 23.5 19.8 8.0 37 8.2 N 17 20 9 11 1011.3 1011.1 0.0
23/08:30pm 23.7 20.0 7.8 36 8.4 N 17 19 9 10 1011.3 1011.1 0.0
23/08:00pm 25.6 21.8 7.7 32 9.6 N 17 20 9 11 1011.3 1011.1 0.0
23/07:30pm 26.4 22.6 7.4 30 10.1 N 17 26 9 14 1010.9 1010.7 0.0
23/07:00pm 26.9 23.6 7.9 30 10.3 N 15 22 8 12 1010.6 1010.4 0.0
23/06:30pm 27.7 23.9 7.5 28 10.9 N 17 26 9 14 1010.3 1010.1 0.0
23/06:00pm 27.9 25.0 8.2 29 10.7 N 13 17 7 9 1010.1 1009.9 0.0
23/05:30pm 29.0 26.1 8.1 27 11.4 N 13 17 7 9 1009.9 1009.7 0.0
23/05:00pm 30.1 27.3 8.5 26 12.0 NNE 13 24 7 13 1009.9 1009.7 0.0
23/04:30pm 30.8 27.6 8.5 25 12.4 NNE 15 24 8 13 1010.1 1009.9 0.0
23/04:00pm 28.2 26.5 12.5 37 9.2 NE 13 17 7 9 1010.2 1010.0 0.0
23/03:30pm 27.3 26.5 12.9 41 8.5 ENE 9 15 5 8 1010.4 1010.2 0.0
23/03:00pm 25.5 25.8 14.9 52 6.4 ESE 7 11 4 6 1010.3 1010.1 0.0
23/02:30pm 25.1 24.9 14.6 52 6.3 S 9 15 5 8 1010.8 1010.6 0.0
23/02:00pm 24.3 22.9 13.5 51 6.3 WSW 13 22 7 12 1011.4 1011.2 0.0
23/01:30pm 26.0 25.0 13.5 46 7.4 NW 11 17 6 9 1011.8 1011.6 0.0
23/01:00pm 21.9 21.2 14.3 62 4.5 SSW 11 19 6 10 1012.0 1011.8 0.0
23/12:30pm 25.3 23.9 12.2 44 7.5 N 11 17 6 9 1012.2 1012.0 0.0
23/12:22pm 24.7 23.0 12.3 46 7.1 N 13 19 7 10 1012.6 1012.4 0.0
23/12:00pm 19.7 19.2 13.9 69 3.3 SSW 9 17 5 9 1014.1 1013.9 0.0
23/11:30am 21.1 20.5 13.5 62 4.4 E 9 13 5 7 1013.7 1013.5 0.0
23/11:00am 21.4 20.6 12.8 58 4.9 SE 9 13 5 7 1015.0 1014.8 0.0
23/10:30am 21.7 21.1 12.3 55 5.3 NNW 7 13 4 7 1015.1 1014.9 0.0
23/10:00am 19.7 18.6 12.0 61 4.3 WSW 9 15 5 8 1015.9 1015.8 0.0
23/09:30am 18.3 13.9 11.6 65 3.7 NNE 26 39 14 21 1014.8 1014.6 0.0
23/09:00am 16.8 12.7 11.5 71 2.9 NNE 24 35 13 19 1016.0 1015.9 0.0
23/08:30am 16.5 12.5 11.9 74 2.5 NNE 24 33 13 18 1016.0 1015.9 0.0
23/08:00am 16.2 12.6 12.0 76 2.3 N 22 30 12 16 1016.8 1016.7 0.0
23/07:30am 15.8 12.9 12.2 79 2.0 NNE 19 32 10 17 1016.8 1016.7 0.0
23/07:00am 15.0 13.5 12.0 82 1.6 NE 11 15 6 8 1016.7 1016.6 0.0
23/06:30am 14.8 12.6 12.1 84 1.5 NNE 15 20 8 11 1017.1 1017.0 0.0
23/06:00am 14.4 13.0 12.3 87 1.1 NE 11 19 6 10 1016.6 1016.5 0.0
23/05:30am 14.0 12.2 12.0 88 1.1 NE 13 20 7 11 1016.3 1016.2 0.0
23/05:00am 14.0 12.2 12.2 89 1.0 ENE 13 20 7 11 1016.0 1015.9 0.0
23/04:30am 14.1 11.5 12.1 88 1.1 NE 17 26 9 14 1015.9 1015.8 0.0
23/04:00am 14.2 11.7 12.2 88 1.1 ENE 17 28 9 15 1015.9 1015.8 0.0
23/03:30am 14.4 12.3 12.4 88 1.1 ENE 15 22 8 12 1016.6 1016.5 0.0
23/03:00am 14.7 13.1 12.7 88 1.1 ENE 13 26 7 14 1016.4 1016.3 0.0
23/02:30am 14.8 12.8 12.8 88 1.1 ENE 15 24 8 13 1016.4 1016.3 0.0
23/02:00am 14.6 12.2 12.6 88 1.1 ENE 17 28 9 15 1017.1 1017.0 0.0
23/01:30am 15.0 12.7 13.0 88 1.1 E 17 30 9 16 1017.2 1017.1 0.0
23/01:00am 14.9 12.0 12.9 88 1.1 E 20 30 11 16 1017.7 1017.6 0.0
23/12:30am 14.9 12.2 12.9 88 1.1 E 19 32 10 17 1018.1 1018.0 0.0
23/12:00am 15.0 13.1 13.0 88 1.1 E 15 26 8 14 1018.6 1018.5 0.0
 
Date/Time
WST
Temp
°C
App
Temp
°C
Dew
Point
Rel
Hum
%
Delta-T
°C
Wind Press
QNH
hPa
Press
MSL
hPa
Rain
since 9 am
mm
Dir
 
Spd
km/h
Gust
km/h
Spd
kts
Gust
kts
22/11:30pm 15.0 12.7 13.0 88 1.1 E 17 26 9 14 1019.5 1019.3 0.0
22/11:00pm 15.3 13.0 13.0 86 1.3 E 17 28 9 15 1019.9 1019.7 0.0
22/10:30pm 15.1 12.3 12.6 85 1.4 ESE 19 30 10 16 1020.3 1020.1 0.0
22/10:00pm 15.2 12.2 12.7 85 1.4 ESE 20 30 11 16 1020.3 1020.1 0.0
22/09:30pm 15.4 13.1 12.9 85 1.4 E 17 28 9 15 1020.6 1020.4 0.0
22/09:00pm 15.5 13.5 12.8 84 1.5 ESE 15 28 8 15 1021.0 1020.8 0.0
22/08:30pm 15.7 13.3 12.8 83 1.6 ESE 17 30 9 16 1021.3 1021.1 0.0
22/08:00pm 15.7 13.6 12.5 81 1.8 ESE 15 30 8 16 1021.5 1021.3 0.0
22/07:30pm 15.8 13.8 12.7 82 1.7 ESE 15 22 8 12 1021.4 1021.2 0.0
22/07:00pm 15.7 13.2 12.3 80 1.9 ESE 17 26 9 14 1021.4 1021.2 0.0
22/06:30pm 15.9 13.5 12.5 80 1.9 ESE 17 22 9 12 1021.3 1021.1 0.0
22/06:00pm 16.1 14.1 12.7 80 1.9 ESE 15 22 8 12 1021.3 1021.1 0.0
22/05:30pm 16.3 13.9 12.5 78 2.1 ESE 17 28 9 15 1021.3 1021.1 0.0
22/05:00pm 16.4 14.3 12.4 77 2.2 ESE 15 24 8 13 1021.4 1021.2 0.0
22/04:30pm 16.8 14.4 12.7 77 2.3 SE 17 26 9 14 1021.5 1021.3 0.0
22/04:00pm 17.2 14.8 12.5 74 2.6 SE 17 26 9 14 1021.7 1021.5 0.0
22/03:30pm 17.5 15.2 13.0 75 2.5 SE 17 28 9 15 1021.5 1021.3 0.0
22/03:00pm 17.8 15.5 13.1 74 2.6 SE 17 24 9 13 1021.8 1021.6 0.0
22/02:30pm 18.4 16.1 13.0 71 3.0 SE 17 24 9 13 1021.8 1021.6 0.0
22/02:00pm 18.4 15.9 12.4 68 3.3 SE 17 26 9 14 1021.8 1021.6 0.0
22/01:30pm 19.3 16.5 12.6 65 3.8 SE 19 30 10 16 1022.1 1021.9 0.0
22/01:00pm 19.1 17.1 12.8 67 3.5 SE 15 24 8 13 1022.4 1022.2 0.0
22/12:30pm 19.4 17.4 12.7 65 3.8 SE 15 24 8 13 1022.8 1022.6 0.0
22/12:00pm 18.9 16.9 12.6 67 3.5 ESE 15 22 8 12 1023.2 1023.0 0.0
22/11:30am 18.9 16.8 12.4 66 3.6 SE 15 24 8 13 1023.3 1023.1 0.0
22/11:00am 18.2 16.5 12.6 70 3.1 SE 13 19 7 10 1023.8 1023.6 0.0
22/10:30am 18.2 16.6 12.9 71 3.0 SE 13 19 7 10 1024.1 1023.9 0.0
22/10:00am 18.2 15.9 13.1 72 2.9 SE 17 24 9 13 1024.1 1023.9 0.0
22/09:30am 17.6 15.8 13.3 76 2.4 SE 15 20 8 11 1024.2 1024.0 0.0
22/09:00am 17.1 15.1 12.8 76 2.4 SE 15 20 8 11 1024.2 1024.0 0.0
22/08:30am 17.1 15.1 12.8 76 2.4 ESE 15 24 8 13 1024.2 1024.0 0.0
22/08:00am 17.0 15.3 13.5 80 2.0 SE 15 20 8 11 1024.2 1024.0 0.0

Other Formats:

Comma delimited format used in spreadsheet applications
http://www.bom.gov.au/fwo/IDW60801/IDW60801.94647.axf

JavaScript Object Notation format (JSON) in row-major order
http://www.bom.gov.au/fwo/IDW60801/IDW60801.94647.json